Time;durP1;ratioP1;P1;durP2;ratioP2;P2;SDS_P1;SDS_P2;PMS_P1;PMS_P2;Temp;Humidity;BMP_temperature;BMP_pressure;BME280_temperature;BME280_humidity;BME280_pressure;Samples;Min_cycle;Max_cycle;Signal;HPM_P1;HPM_P2
2023/06/04 00:02:12;;;;;;;;;;;21.80;48.30;;;21.95;35.15;98619.25;5026986;27;108580;-83
2023/06/04 00:04:38;;;;;;;;;;;21.80;48.40;;;21.94;34.97;98625.25;5012891;27;108896;-83
2023/06/04 00:07:05;;;;;;;;;;;21.70;48.40;;;21.91;35.38;98618.41;5017799;28;123440;-83
2023/06/04 00:09:34;;;;;;;;;;;21.70;48.50;;;21.89;34.96;98626.41;5023408;27;124069;-83
2023/06/04 00:12:01;;;;;;;;;;;21.70;48.40;;;21.86;35.18;98621.59;5028805;28;109199;-82
2023/06/04 00:14:28;;;;;;;;;;;21.60;48.40;;;21.83;35.31;98623.19;5023017;28;108156;-82
2023/06/04 00:16:54;;;;;;;;;;;21.60;48.40;;;21.81;35.25;98630.41;5030727;27;125395;-83
2023/06/04 00:19:26;;;;;;;;;;;21.60;48.50;;;21.79;35.41;98621.56;5026384;27;124033;-83
2023/06/04 00:21:59;;;;;;;;;;;21.60;48.60;;;21.74;35.32;98625.53;5020539;27;108051;-82
2023/06/04 00:24:28;;;;;;;;;;;21.50;48.50;;;21.69;35.42;98616.66;5026038;27;108571;-83
2023/06/04 00:27:00;;;;;;;;;;;21.50;48.60;;;21.64;35.05;98619.84;5040974;27;124467;-82
2023/06/04 00:29:26;;;;;;;;;;;21.40;48.40;;;21.60;35.14;98620.63;5051338;27;124285;-83
2023/06/04 00:31:53;;;;;;;;;;;21.40;48.40;;;21.58;35.10;98620.22;5035835;27;109308;-83
2023/06/04 00:34:22;;;;;;;;;;;21.40;48.50;;;21.54;35.16;98622.16;5032566;27;108478;-83
2023/06/04 00:36:49;;;;;;;;;;;21.30;48.50;;;21.46;35.16;98616.91;5034090;27;124207;-83
2023/06/04 00:39:16;;;;;;;;;;;21.30;48.40;;;21.44;35.40;98625.72;5042835;27;124565;-83
2023/06/04 00:41:48;;;;;;;;;;;21.30;48.50;;;21.43;35.30;98621.28;5026237;27;109788;-82
2023/06/04 00:44:15;;;;;;;;;;;21.30;48.50;;;21.41;35.35;98626.47;5023722;27;109728;-83
2023/06/04 00:46:45;;;;;;;;;;;21.20;48.50;;;21.40;35.19;98628.50;5011471;28;123190;-82
2023/06/04 00:49:13;;;;;;;;;;;21.20;48.50;;;21.38;35.19;98624.47;5032999;27;123880;-82
2023/06/04 00:51:40;;;;;;;;;;;21.20;48.60;;;21.31;35.50;98633.63;5031790;27;109177;-83
2023/06/04 00:54:12;;;;;;;;;;;21.10;48.50;;;21.26;35.24;98639.59;5033088;28;108898;-83
2023/06/04 00:56:41;;;;;;;;;;;21.10;48.50;;;21.25;35.52;98642.78;5033802;27;123564;-82
2023/06/04 00:59:11;;;;;;;;;;;21.10;48.50;;;21.24;35.34;98646.81;5002257;27;124124;-83
2023/06/04 01:01:59;;;;;;;;;;;21.10;48.60;;;21.19;35.50;98645.16;5025533;27;109949;-83
2023/06/04 01:04:29;;;;;;;;;;;21.00;48.60;;;21.12;35.37;98645.91;5033085;27;108694;-83
2023/06/04 01:07:04;;;;;;;;;;;20.90;48.60;;;21.07;35.25;98642.63;5029496;27;124259;-83
2023/06/04 01:09:37;;;;;;;;;;;20.90;48.60;;;21.06;35.32;98644.63;5030425;27;124181;-83
2023/06/04 01:12:13;;;;;;;;;;;20.90;48.60;;;21.06;35.43;98652.25;5034102;27;109343;-83
2023/06/04 01:14:39;;;;;;;;;;;20.80;48.60;;;21.04;35.17;98649.03;5033940;27;108593;-83
2023/06/04 01:17:28;;;;;;;;;;;20.80;48.60;;;21.01;35.54;98639.38;5041088;27;124175;-82
2023/06/04 01:20:04;;;;;;;;;;;20.80;48.70;;;21.02;35.76;98657.03;5037834;27;124054;-83
2023/06/04 01:22:49;;;;;;;;;;;20.80;48.70;;;20.98;35.73;98654.16;5041136;27;109510;-83
2023/06/04 01:25:28;;;;;;;;;;;20.80;48.80;;;20.92;35.76;98652.91;5034239;27;108907;-83
2023/06/04 01:28:04;;;;;;;;;;;20.70;48.70;;;20.90;35.71;98656.13;5031049;27;124894;-84
2023/06/04 01:30:36;;;;;;;;;;;20.70;48.70;;;20.85;35.48;98647.25;5019660;27;123965;-84
2023/06/04 01:33:03;;;;;;;;;;;20.70;48.70;;;20.82;35.63;98647.97;5030042;28;110350;-83
2023/06/04 01:35:39;;;;;;;;;;;20.70;48.80;;;20.77;35.58;98649.16;5026843;27;109735;-83
2023/06/04 01:38:11;;;;;;;;;;;20.60;48.70;;;20.73;35.52;98651.09;5032488;27;124120;-83
2023/06/04 01:40:37;;;;;;;;;;;20.50;48.70;;;20.71;35.84;98645.06;5037156;27;123883;-84
2023/06/04 01:43:03;;;;;;;;;;;20.50;48.70;;;20.70;35.68;98647.06;5032416;27;109342;-83
2023/06/04 01:45:35;;;;;;;;;;;20.50;48.80;;;20.63;35.79;98647.00;5031725;28;108655;-84
2023/06/04 01:48:03;;;;;;;;;;;20.40;48.70;;;20.57;35.67;98651.31;5033663;27;123615;-84
2023/06/04 01:50:30;;;;;;;;;;;20.40;48.70;;;20.55;35.95;98645.28;5016898;28;123794;-83
2023/06/04 01:52:59;;;;;;;;;;;20.40;48.80;;;20.54;35.74;98646.47;5030667;28;109416;-84
2023/06/04 01:55:27;;;;;;;;;;;20.30;48.70;;;20.54;36.04;98649.28;5031903;27;108563;-83
2023/06/04 01:57:54;;;;;;;;;;;20.30;48.90;;;20.50;35.65;98648.41;5029715;27;124213;-84
2023/06/04 02:00:23;;;;;;;;;;;20.30;48.80;;;20.44;35.64;98635.91;5018332;27;123164;-84
2023/06/04 02:02:50;;;;;;;;;;;20.30;48.90;;;20.43;35.83;98642.72;5045598;27;109755;-84
2023/06/04 02:05:18;;;;;;;;;;;20.20;48.80;;;20.42;35.82;98647.53;5021711;27;108468;-84
2023/06/04 02:07:47;;;;;;;;;;;20.20;48.90;;;20.39;35.94;98642.69;5031049;27;123570;-83
2023/06/04 02:10:16;;;;;;;;;;;20.20;48.90;;;20.36;36.07;98645.41;5009152;27;122847;-84
2023/06/04 02:12:54;;;;;;;;;;;20.20;49.00;;;20.34;36.03;98650.59;5031498;27;109338;-83
2023/06/04 02:15:20;;;;;;;;;;;20.10;48.90;;;20.33;35.89;98654.59;5031024;28;108565;-83
2023/06/04 02:17:50;;;;;;;;;;;20.10;48.90;;;20.30;35.90;98651.38;5028583;27;124301;-84
2023/06/04 02:20:17;;;;;;;;;;;20.10;49.00;;;20.27;35.99;98652.13;5033716;27;124120;-84
2023/06/04 02:22:43;;;;;;;;;;;20.00;49.00;;;20.25;36.23;98654.50;5032985;27;110414;-84
2023/06/04 02:25:12;;;;;;;;;;;20.00;49.00;;;20.23;35.95;98650.47;5026553;28;109781;-84
2023/06/04 02:27:38;;;;;;;;;;;20.00;49.00;;;20.22;36.23;98660.06;5013117;28;125401;-83
2023/06/04 02:30:05;;;;;;;;;;;20.00;49.00;;;20.20;36.32;98654.88;5030410;27;122836;-83
2023/06/04 02:32:33;;;;;;;;;;;20.00;49.00;;;20.12;36.14;98657.94;5023961;27;109059;-84
2023/06/04 02:35:00;;;;;;;;;;;19.90;49.00;;;20.07;36.14;98659.09;5036065;27;108834;-84
2023/06/04 02:37:32;;;;;;;;;;;19.90;49.00;;;20.00;36.47;98658.97;5035094;27;125183;-84
2023/06/04 02:40:08;;;;;;;;;;;19.90;49.00;;;19.98;36.19;98662.16;5033619;27;124604;-83
2023/06/04 02:42:53;;;;;;;;;;;19.80;49.00;;;20.00;36.13;98664.59;5023436;27;108767;-84
2023/06/04 02:45:28;;;;;;;;;;;19.80;49.10;;;19.98;36.52;98664.16;5034743;27;108668;-84
2023/06/04 02:48:13;;;;;;;;;;;19.80;49.20;;;19.95;36.27;98662.09;5027991;27;124435;-84
2023/06/04 02:54:06;;;;;;;;;;;19.70;49.20;;;19.91;36.25;98661.22;4992112;28;109375;-83
2023/06/04 02:59:56;;;;;;;;;;;19.70;49.10;;;19.81;36.21;98657.91;4991872;28;124872;-84
2023/06/04 03:02:48;;;;;;;;;;;19.60;48.90;;;19.79;36.16;98663.06;4988672;28;124616;-84
2023/06/04 03:05:42;;;;;;;;;;;19.60;48.90;;;19.73;36.13;98667.41;5004825;28;109580;-84
2023/06/04 03:08:44;;;;;;;;;;;19.60;48.80;;;19.69;35.93;98660.09;5019380;27;108875;-83
2023/06/04 03:11:20;;;;;;;;;;;19.50;48.60;;;19.61;35.98;98670.38;5030798;27;124070;-84
2023/06/04 03:14:05;;;;;;;;;;;19.50;48.60;;;19.57;36.03;98677.91;5028073;27;124143;-84
2023/06/04 03:16:31;;;;;;;;;;;19.40;48.60;;;19.53;35.96;98675.06;5028072;28;110015;-84
2023/06/04 03:19:26;;;;;;;;;;;19.40;48.50;;;19.51;36.00;98676.63;5030698;27;109819;-84
2023/06/04 03:21:53;;;;;;;;;;;19.40;48.50;;;19.51;36.01;98677.44;5016588;28;124076;-84
2023/06/04 03:24:43;;;;;;;;;;;19.30;48.50;;;19.50;36.11;98675.00;5013738;28;122706;-85
2023/06/04 03:27:40;;;;;;;;;;;19.30;48.60;;;19.48;35.82;98682.97;5027978;27;109037;-84
2023/06/04 03:30:48;;;;;;;;;;;19.20;48.30;;;19.34;35.77;98684.38;5038032;27;108425;-84
2023/06/04 03:33:14;;;;;;;;;;;19.20;48.10;;;19.25;35.90;98688.59;5030199;27;123197;-83
2023/06/04 03:35:58;;;;;;;;;;;19.10;48.00;;;19.24;35.84;98684.97;5029707;28;123975;-84
2023/06/04 03:38:30;;;;;;;;;;;19.10;48.10;;;19.27;35.90;98687.03;5032355;27;109141;-84
2023/06/04 03:41:27;;;;;;;;;;;19.10;48.20;;;19.34;35.73;98689.13;5027123;27;102501;-84
2023/06/04 03:44:38;;;;;;;;;;;19.10;48.20;;;19.34;35.72;98689.97;5029527;27;124284;-84
2023/06/04 03:47:26;;;;;;;;;;;19.10;48.20;;;19.32;35.85;98691.53;5033085;27;124535;-85
2023/06/04 03:49:52;;;;;;;;;;;19.10;48.30;;;19.32;36.05;98689.53;5032717;27;109618;-84
2023/06/04 03:52:36;;;;;;;;;;;19.10;48.50;;;19.30;36.31;98689.09;5029085;27;108650;-84
2023/06/04 03:55:48;;;;;;;;;;;19.10;48.60;;;19.27;35.97;98695.44;5042240;27;124106;-84
2023/06/04 04:01:43;;;;;;;;;;;19.00;48.40;;;19.20;35.88;98692.50;4982049;28;110015;-84
2023/06/04 04:04:18;;;;;;;;;;;18.90;48.40;;;19.16;36.18;98700.03;5002672;28;108718;-84
2023/06/04 04:06:46;;;;;;;;;;;18.90;48.60;;;19.12;36.19;98694.34;4946158;28;123622;-83
2023/06/04 04:10:05;;;;;;;;;;;18.90;48.60;;;19.12;36.16;98701.94;4960794;28;123797;-84
2023/06/04 04:15:58;;;;;;;;;;;18.90;48.80;;;19.14;36.20;98696.78;4854980;28;110351;-84
2023/06/04 04:18:27;;;;;;;;;;;18.90;48.90;;;19.17;36.44;98701.66;4837567;29;124201;-84
2023/06/04 04:21:27;;;;;;;;;;;18.90;49.00;;;19.18;36.43;98711.66;4838877;29;125006;-82
2023/06/04 04:24:03;;;;;;;;;;;18.90;48.90;;;19.18;36.62;98709.69;4865491;28;109069;-84
2023/06/04 04:26:38;;;;;;;;;;;18.90;48.90;;;19.20;36.25;98707.31;4842536;28;108866;-82
2023/06/04 04:30:09;;;;;;;;;;;18.90;48.90;;;19.17;36.36;98718.44;4865551;28;124661;-84
2023/06/04 04:32:38;;;;;;;;;;;18.90;49.00;;;19.08;36.77;98718.69;4837506;29;123332;-83
2023/06/04 04:35:11;;;;;;;;;;;18.80;49.10;;;19.01;36.70;98726.16;4823108;29;108469;-82
2023/06/04 04:37:57;;;;;;;;;;;18.80;49.00;;;18.97;36.73;98721.28;4852576;28;108026;-84
2023/06/04 04:40:47;;;;;;;;;;;18.80;49.00;;;18.94;36.77;98722.03;4864720;28;124160;-83
2023/06/04 04:46:23;;;;;;;;;;;18.70;49.10;;;18.92;36.95;98730.00;4942497;28;109712;-82
2023/06/04 04:49:07;;;;;;;;;;;18.70;49.20;;;18.91;36.71;98728.38;4950083;28;108683;-83
2023/06/04 04:51:48;;;;;;;;;;;18.70;49.40;;;18.91;36.75;98722.78;4950260;28;124262;-84
2023/06/04 04:54:15;;;;;;;;;;;18.70;49.30;;;18.86;36.85;98725.88;5040877;27;122907;-83
2023/06/04 04:57:07;;;;;;;;;;;18.60;49.40;;;18.74;36.98;98728.78;5033548;27;109294;-83
2023/06/04 04:59:51;;;;;;;;;;;18.50;49.60;;;18.63;37.42;98733.38;5053625;27;109246;-83
2023/06/04 05:03:01;;;;;;;;;;;18.40;50.00;;;18.55;37.50;98730.41;5035642;27;124026;-83
2023/06/04 05:09:01;;;;;;;;;;;18.30;50.20;;;18.59;37.83;98726.88;4971289;28;110887;-85
2023/06/04 05:11:27;;;;;;;;;;;18.30;50.40;;;18.59;37.85;98741.69;4971228;28;109584;-82
2023/06/04 05:14:50;;;;;;;;;;;18.30;50.30;;;18.58;37.59;98745.66;4971621;28;123882;-83
2023/06/04 05:17:29;;;;;;;;;;;18.30;50.30;;;18.61;37.58;98746.91;4960672;28;123890;-84
2023/06/04 05:20:11;;;;;;;;;;;18.30;50.20;;;18.68;37.20;98747.06;4965052;28;108993;-83
2023/06/04 05:23:32;;;;;;;;;;;18.20;50.00;;;18.73;37.08;98739.19;4933497;28;107911;-84
2023/06/04 05:29:15;;;;;;;;;;;19.80;51.10;;;18.80;36.92;98749.72;4838834;29;124400;-83
2023/06/04 05:31:42;;;;;;;;;;;18.40;49.60;;;18.86;36.72;98765.06;4864834;28;109265;-84
2023/06/04 05:34:18;;;;;;;;;;;18.40;49.40;;;18.93;36.54;98756.81;4874394;28;109810;-84
2023/06/04 05:37:16;;;;;;;;;;;18.50;49.40;;;19.02;36.37;98755.75;4852827;28;124328;-83
2023/06/04 05:40:03;;;;;;;;;;;18.60;49.30;;;19.04;36.25;98764.63;4888960;28;124004;-84
2023/06/04 05:42:56;;;;;;;;;;;18.60;49.10;;;19.01;36.15;98770.94;4876620;28;109303;-84
2023/06/04 05:45:56;;;;;;;;;;;18.60;49.00;;;19.01;36.30;98762.56;4898089;28;108844;-84
2023/06/04 05:48:22;;;;;;;;;;;18.60;49.00;;;19.02;36.21;98767.78;4958916;28;124430;-83
2023/06/04 05:51:24;;;;;;;;;;;18.70;49.60;;;19.02;36.19;98764.16;4972146;28;123474;-84
2023/06/04 05:57:29;;;;;;;;;;;18.70;48.90;;;19.03;36.26;98768.59;4895093;28;109994;-83
2023/06/04 06:00:16;;;;;;;;;;;18.70;48.80;;;19.02;36.50;98772.56;4878941;28;124239;-84
2023/06/04 06:02:45;;;;;;;;;;;18.70;48.90;;;19.01;36.30;98782.16;4883668;28;124276;-84
2023/06/04 06:05:29;;;;;;;;;;;18.70;48.80;;;18.96;36.15;98775.66;4896654;28;110069;-83
2023/06/04 06:07:58;;;;;;;;;;;18.70;48.80;;;18.96;36.31;98781.25;4881693;28;109162;-84
2023/06/04 06:11:21;;;;;;;;;;;18.70;48.80;;;18.95;36.25;98776.84;4893105;28;124088;-83
2023/06/04 06:13:56;;;;;;;;;;;18.70;48.80;;;19.08;36.03;98777.50;4840136;29;123910;-84
2023/06/04 06:16:22;;;;;;;;;;;18.70;48.80;;;19.13;36.02;98770.81;4849135;28;109299;-82
2023/06/04 06:19:11;;;;;;;;;;;18.70;48.70;;;19.19;35.97;98772.13;4854190;28;109048;-82
2023/06/04 06:25:45;;;;;;;;;;;18.80;48.80;;;19.29;35.83;98784.69;4837503;29;124465;-84
2023/06/04 06:28:11;;;;;;;;;;;18.80;48.80;;;19.36;35.57;98788.44;4834421;29;108970;-83
2023/06/04 06:30:44;;;;;;;;;;;18.80;48.90;;;19.41;35.33;98785.34;4855517;28;108269;-82
2023/06/04 06:36:32;;;;;;;;;;;18.90;48.40;;;19.59;35.08;98788.47;4845534;28;123207;-83
2023/06/04 06:39:04;;;;;;;;;;;19.00;48.40;;;19.72;34.77;98789.13;4851275;29;109121;-83
2023/06/04 06:41:49;;;;;;;;;;;19.10;48.00;;;19.81;34.69;98789.69;4855321;28;108689;-83
2023/06/04 06:44:40;;;;;;;;;;;19.30;47.90;;;19.91;34.61;98787.41;4848035;28;124371;-81
2023/06/04 06:47:06;;;;;;;;;;;19.40;47.70;;;19.98;34.44;98791.16;4864594;28;123552;-83
2023/06/04 06:49:51;;;;;;;;;;;19.40;47.40;;;19.99;33.69;98792.00;4944478;28;109548;-83
2023/06/04 06:52:20;;;;;;;;;;;19.40;46.90;;;19.98;33.86;98798.78;4944215;28;108668;-82
2023/06/04 06:54:52;;;;;;;;;;;19.40;46.90;;;19.93;34.08;98799.06;4927997;28;124247;-82
2023/06/04 06:57:18;;;;;;;;;;;19.40;46.80;;;19.91;33.94;98790.22;4919598;28;126446;-82
2023/06/04 06:59:45;;;;;;;;;;;19.40;46.80;;;19.87;34.07;98787.38;4951756;28;110277;-82
2023/06/04 07:02:17;;;;;;;;;;;19.40;46.80;;;19.86;34.09;98796.97;4991338;27;109816;-82
2023/06/04 07:05:14;;;;;;;;;;;19.40;46.80;;;19.89;34.24;98793.41;5029755;27;124425;-81
2023/06/04 07:07:52;;;;;;;;;;;19.50;47.00;;;20.02;34.05;98791.22;5028491;28;123787;-82
2023/06/04 07:14:06;;;;;;;;;;;19.60;47.00;;;20.26;34.24;98799.22;5029205;27;109495;-84
2023/06/04 07:16:42;;;;;;;;;;;19.70;47.10;;;20.41;34.06;98799.44;5014411;27;124458;-83
2023/06/04 07:22:34;;;;;;;;;;;19.90;47.20;;;20.65;33.69;98796.19;5029400;27;110145;-82
2023/06/04 07:25:00;;;;;;;;;;;20.00;47.10;;;20.80;33.51;98796.41;5014506;27;109007;-83
2023/06/04 07:27:27;;;;;;;;;;;20.10;47.60;;;20.90;33.20;98790.94;4989626;28;124006;-84
2023/06/04 07:29:53;;;;;;;;;;;20.30;46.80;;;21.01;33.17;98796.69;5030948;27;123819;-82
2023/06/04 07:32:22;;;;;;;;;;;20.40;46.80;;;21.09;33.34;98798.38;5000415;27;108231;-82
2023/06/04 07:34:50;;;;;;;;;;;20.40;46.80;;;21.18;33.38;98793.25;5018222;28;108336;-83
2023/06/04 07:37:16;;;;;;;;;;;20.50;46.90;;;21.26;33.06;98794.16;5018179;27;124227;-84
2023/06/04 07:39:43;;;;;;;;;;;20.50;46.60;;;21.28;33.38;98799.38;5025215;27;123805;-83
2023/06/04 07:42:09;;;;;;;;;;;20.60;46.70;;;21.26;33.12;98791.34;5012458;28;109018;-83
2023/06/04 07:44:37;;;;;;;;;;;20.70;46.60;;;21.21;32.78;98786.06;5018613;27;108872;-83
2023/06/04 07:47:06;;;;;;;;;;;20.60;46.40;;;21.19;33.39;98783.63;5013483;27;126455;-82
2023/06/04 07:49:35;;;;;;;;;;;20.70;46.50;;;21.18;32.97;98786.84;5024278;27;124148;-82
2023/06/04 07:52:01;;;;;;;;;;;20.70;46.30;;;21.24;33.35;98792.94;5031313;27;109957;-82
2023/06/04 07:54:27;;;;;;;;;;;20.80;46.50;;;21.36;33.03;98784.25;5016231;27;110227;-81
2023/06/04 07:56:55;;;;;;;;;;;20.90;46.70;;;21.51;33.02;98780.38;5023727;27;124743;-82
2023/06/04 07:59:23;;;;;;;;;;;20.90;46.70;;;21.63;33.45;98782.13;5018154;27;124202;-82
2023/06/04 08:01:51;;;;;;;;;;;21.00;46.90;;;21.67;33.08;98782.16;5027633;27;109659;-82
2023/06/04 08:04:20;;;;;;;;;;;21.00;46.70;;;21.72;33.14;98776.19;5031914;27;107893;-85
2023/06/04 08:06:49;;;;;;;;;;;21.10;46.80;;;21.72;33.00;98785.41;5017519;27;124318;-85
2023/06/04 08:09:15;;;;;;;;;;;21.10;46.90;;;21.74;33.44;98768.16;5029000;27;123166;-87
2023/06/04 08:11:44;;;;;;;;;;;21.10;47.00;;;21.75;33.18;98770.56;5015887;27;107461;-85
2023/06/04 08:14:14;;;;;;;;;;;21.20;47.00;;;21.75;33.29;98766.97;5011490;27;107266;-85
2023/06/04 08:16:41;;;;;;;;;;;21.20;47.10;;;21.75;33.47;98773.38;5029770;27;124028;-85
2023/06/04 08:19:07;;;;;;;;;;;21.20;47.00;;;21.79;33.44;98776.25;5036676;27;124459;-87
2023/06/04 08:21:44;;;;;;;;;;;21.30;47.00;;;21.91;33.53;98772.31;5030211;27;107855;-85
2023/06/04 08:24:13;;;;;;;;;;;21.40;47.20;;;22.01;33.35;98763.97;5039600;27;107130;-86
2023/06/04 08:26:41;;;;;;;;;;;21.50;47.30;;;22.15;32.82;98773.72;5043707;27;124667;-86
2023/06/04 08:29:08;;;;;;;;;;;21.60;47.20;;;22.23;32.78;98764.16;5021309;28;122044;-86
2023/06/04 08:31:34;;;;;;;;;;;21.60;46.80;;;22.23;32.71;98766.97;5032178;27;109167;-86
2023/06/04 08:34:05;;;;;;;;;;;21.60;46.60;;;22.27;32.79;98762.16;5033361;27;109243;-86
2023/06/04 08:36:33;;;;;;;;;;;21.70;46.60;;;22.33;32.70;98760.59;5024836;27;123778;-88
2023/06/04 08:39:02;;;;;;;;;;;21.80;46.60;;;22.45;32.52;98762.28;5027309;27;123908;-86
2023/06/04 08:41:45;;;;;;;;;;;21.90;46.60;;;22.53;32.60;98760.31;5033395;27;110113;-86
2023/06/04 08:44:11;;;;;;;;;;;21.90;46.60;;;22.59;32.35;98759.53;5034715;27;109781;-87
2023/06/04 08:46:41;;;;;;;;;;;22.00;46.50;;;22.62;32.57;98753.13;5034604;27;123313;-86
2023/06/04 08:49:08;;;;;;;;;;;22.00;46.60;;;22.68;32.51;98762.00;5030470;27;123793;-84
2023/06/04 08:51:37;;;;;;;;;;;22.10;46.70;;;22.75;32.32;98750.75;5028122;27;108948;-84
2023/06/04 08:54:05;;;;;;;;;;;22.10;46.60;;;22.81;32.16;98757.66;5030965;27;108886;-84
2023/06/04 08:56:36;;;;;;;;;;;22.20;46.70;;;22.84;32.13;98768.13;5023335;27;124909;-85
2023/06/04 08:59:06;;;;;;;;;;;22.20;46.50;;;22.85;32.25;98758.47;5019564;28;123587;-85
2023/06/04 09:01:36;;;;;;;;;;;22.20;46.40;;;22.87;32.09;98758.88;5032661;27;109522;-84
2023/06/04 09:04:07;;;;;;;;;;;22.30;46.40;;;22.93;32.41;98762.91;5032081;27;108767;-85
2023/06/04 09:06:33;;;;;;;;;;;22.40;46.50;;;23.00;32.36;98756.53;5016635;28;123696;-84
2023/06/04 09:09:04;;;;;;;;;;;22.40;46.60;;;23.02;32.71;98756.13;5031212;27;123935;-85
2023/06/04 09:11:36;;;;;;;;;;;22.50;46.90;;;23.05;32.82;98764.63;5030829;27;108972;-85
2023/06/04 09:14:07;;;;;;;;;;;22.50;46.90;;;23.13;32.21;98774.72;5029375;27;109011;-84
2023/06/04 09:16:42;;;;;;;;;;;22.60;46.60;;;23.17;31.91;98769.06;5025655;27;124799;-84
2023/06/04 09:19:11;;;;;;;;;;;22.60;46.00;;;23.18;31.83;98765.03;5026386;27;124020;-84
2023/06/04 09:21:50;;;;;;;;;;;22.70;45.90;;;23.21;32.03;98767.06;5014757;27;109765;-84
2023/06/04 09:24:21;;;;;;;;;;;22.70;46.10;;;23.30;32.09;98758.25;5020733;28;108566;-83
2023/06/04 09:26:48;;;;;;;;;;;22.80;46.00;;;23.35;32.04;98771.94;5020785;27;123473;-84
2023/06/04 09:29:15;;;;;;;;;;;22.80;46.00;;;23.44;32.00;98768.75;5005815;27;123123;-84
2023/06/04 09:31:46;;;;;;;;;;;22.90;46.10;;;23.49;31.56;98768.34;5006625;28;110878;-83
2023/06/04 09:34:13;;;;;;;;;;;23.00;45.90;;;23.54;31.00;98768.75;5025180;27;110061;-88
2023/06/04 09:36:42;;;;;;;;;;;22.90;45.00;;;23.59;30.90;98764.75;5015578;28;123237;-84
2023/06/04 09:39:16;;;;;;;;;;;23.10;45.00;;;23.63;30.73;98759.91;5019654;27;124797;-85
2023/06/04 09:41:43;;;;;;;;;;;23.10;44.50;;;23.67;30.61;98760.72;5017830;27;108329;-86
2023/06/04 09:44:11;;;;;;;;;;;23.10;44.30;;;23.73;30.45;98753.50;5035637;27;107738;-84
2023/06/04 09:46:38;;;;;;;;;;;23.20;44.40;;;23.79;30.54;98746.25;5030933;27;124102;-84
2023/06/04 09:49:05;;;;;;;;;;;23.30;44.50;;;23.88;30.78;98753.50;5024303;28;124050;-86
2023/06/04 09:51:32;;;;;;;;;;;23.30;44.70;;;23.92;30.62;98751.50;5026714;27;109380;-85
2023/06/04 09:54:00;;;;;;;;;;;23.40;44.80;;;23.94;30.79;98757.53;5027390;27;108156;-85
2023/06/04 09:56:28;;;;;;;;;;;23.50;44.60;;;23.97;30.95;98765.19;5024907;27;124269;-88
2023/06/04 09:58:58;;;;;;;;;;;23.50;44.70;;;24.02;30.57;98759.94;5030922;27;124373;-84
2023/06/04 10:01:26;;;;;;;;;;;23.60;44.80;;;24.10;30.10;98755.13;5018103;27;109675;-83
2023/06/04 10:03:53;;;;;;;;;;;23.60;44.00;;;24.20;29.32;98757.09;5029350;27;109226;-81
2023/06/04 10:06:22;;;;;;;;;;;23.60;42.90;;;24.30;29.58;98746.19;5030183;27;124203;-81
2023/06/04 10:08:52;;;;;;;;;;;23.70;43.50;;;24.35;29.11;98748.63;5030676;27;125658;-81
2023/06/04 10:11:31;;;;;;;;;;;23.80;43.10;;;24.37;29.30;98749.03;5033049;27;109185;-82
2023/06/04 10:14:06;;;;;;;;;;;23.90;42.90;;;24.41;28.70;98741.34;5030982;27;107941;-82
2023/06/04 10:16:33;;;;;;;;;;;23.90;41.80;;;24.46;28.65;98755.06;5023062;27;124178;-85
2023/06/04 10:19:00;;;;;;;;;;;24.00;42.10;;;24.53;28.56;98746.59;5015875;27;123483;-82
2023/06/04 10:21:29;;;;;;;;;;;24.00;42.10;;;24.59;28.44;98746.97;5028749;28;110158;-82
2023/06/04 10:23:55;;;;;;;;;;;24.10;41.90;;;24.62;28.51;98738.47;5027133;28;109671;-81
2023/06/04 10:26:24;;;;;;;;;;;24.10;42.40;;;24.67;28.20;98738.06;5021583;27;123567;-82
2023/06/04 10:28:53;;;;;;;;;;;24.20;41.60;;;24.72;28.27;98731.19;5033281;28;123850;-82
2023/06/04 10:31:19;;;;;;;;;;;24.20;41.30;;;24.77;27.72;98735.59;5035194;27;109716;-81
2023/06/04 10:33:45;;;;;;;;;;;24.30;41.10;;;24.83;27.95;98729.13;5039717;27;108742;-82
2023/06/04 10:36:19;;;;;;;;;;;24.40;41.40;;;24.90;28.10;98731.09;5030347;27;124930;-81
2023/06/04 10:38:50;;;;;;;;;;;24.40;41.40;;;24.98;27.75;98732.66;5037812;27;124012;-81
2023/06/04 10:41:18;;;;;;;;;;;24.50;40.90;;;25.05;27.89;98726.19;5028176;27;109671;-82
2023/06/04 10:43:45;;;;;;;;;;;24.50;41.00;;;25.13;27.93;98728.56;5030258;28;108961;-80
2023/06/04 10:46:13;;;;;;;;;;;24.60;41.30;;;25.22;27.41;98728.13;5027801;27;124146;-85
2023/06/04 10:48:47;;;;;;;;;;;24.70;40.90;;;25.25;27.75;98723.66;5021148;27;123828;-84
2023/06/04 10:51:16;;;;;;;;;;;24.70;40.80;;;25.30;27.48;98723.25;5028412;28;109448;-85
2023/06/04 10:53:42;;;;;;;;;;;24.80;41.00;;;25.35;27.45;98728.47;5032420;27;108827;-86
2023/06/04 10:56:11;;;;;;;;;;;24.90;41.10;;;25.42;27.64;98725.59;5024582;27;123623;-85
2023/06/04 10:58:37;;;;;;;;;;;24.90;40.80;;;25.46;27.35;98717.88;5031331;28;122992;-86
2023/06/04 11:01:06;;;;;;;;;;;25.00;40.60;;;25.50;27.47;98717.88;5026546;27;109991;-85
2023/06/04 11:03:38;;;;;;;;;;;25.00;40.60;;;25.57;27.62;98734.78;5029608;28;108640;-85
2023/06/04 11:06:17;;;;;;;;;;;25.10;40.80;;;25.61;27.13;98714.97;5011056;27;123985;-86
2023/06/04 11:08:43;;;;;;;;;;;25.10;40.10;;;25.66;27.11;98720.19;5003124;27;123940;-86
2023/06/04 11:11:16;;;;;;;;;;;25.20;40.20;;;25.71;26.82;98726.19;5027453;27;110351;-86
2023/06/04 11:13:43;;;;;;;;;;;25.30;40.20;;;25.77;26.59;98723.72;5008010;28;109023;-85
2023/06/04 11:16:21;;;;;;;;;;;25.30;40.10;;;25.80;26.32;98720.06;5018686;27;125145;-85
2023/06/04 11:18:59;;;;;;;;;;;25.30;39.50;;;25.83;26.61;98716.38;5018821;27;123632;-86
2023/06/04 11:21:25;;;;;;;;;;;25.40;39.70;;;25.90;26.61;98721.19;5016618;28;108646;-86
2023/06/04 11:23:57;;;;;;;;;;;25.40;39.50;;;25.95;26.52;98724.41;5034047;27;108658;-85
2023/06/04 11:26:33;;;;;;;;;;;25.50;39.60;;;26.01;26.13;98716.25;5042269;27;124207;-85
2023/06/04 11:29:05;;;;;;;;;;;25.50;39.00;;;26.05;26.16;98722.69;5032038;27;123925;-86
2023/06/04 11:31:54;;;;;;;;;;;25.60;38.90;;;26.08;25.46;98721.84;5029286;27;109908;-85
2023/06/04 11:34:23;;;;;;;;;;;25.60;38.30;;;26.14;26.07;98708.03;5030625;27;109127;-85
2023/06/04 11:36:52;;;;;;;;;;;25.70;38.60;;;26.18;25.31;98708.81;5028815;27;123989;-84
2023/06/04 11:39:19;;;;;;;;;;;25.70;38.10;;;26.26;25.35;98718.03;5035992;27;124090;-85
2023/06/04 11:41:46;;;;;;;;;;;25.80;38.00;;;26.32;25.46;98705.81;5036200;27;109208;-85
2023/06/04 11:44:13;;;;;;;;;;;25.80;37.90;;;26.35;25.28;98713.47;5026407;28;109181;-84
2023/06/04 11:46:43;;;;;;;;;;;25.80;37.90;;;26.41;25.47;98703.31;5031600;27;125397;-85
2023/06/04 11:49:17;;;;;;;;;;;25.90;38.00;;;26.51;25.01;98703.59;5003884;28;123166;-86
2023/06/04 11:51:52;;;;;;;;;;;26.00;37.90;;;26.61;25.26;98712.00;5027514;27;109471;-84
2023/06/04 11:54:20;;;;;;;;;;;26.10;38.00;;;26.73;25.21;98707.78;5035228;27;108344;-83
2023/06/04 11:56:49;;;;;;;;;;;26.20;37.70;;;26.82;24.94;98712.97;5020384;28;123659;-83
2023/06/04 11:59:17;;;;;;;;;;;26.30;37.50;;;26.91;24.33;98698.28;5022802;27;123977;-84
2023/06/04 12:01:44;;;;;;;;;;;26.30;36.80;;;26.92;24.05;98697.03;5017842;27;110541;-85
2023/06/04 12:04:17;;;;;;;;;;;26.40;36.30;;;26.94;24.20;98697.41;5032043;27;109934;-82
2023/06/04 12:06:57;;;;;;;;;;;26.40;36.70;;;26.97;24.45;98697.34;5039211;27;124566;-84
2023/06/04 12:09:27;;;;;;;;;;;26.50;36.70;;;27.06;24.16;98694.03;5047823;27;124793;-82
2023/06/04 12:12:06;;;;;;;;;;;26.60;36.70;;;27.14;23.90;98698.38;5023673;28;108391;-83
2023/06/04 12:14:32;;;;;;;;;;;26.60;36.20;;;27.19;23.40;98689.41;5034943;27;108806;-83
2023/06/04 12:17:08;;;;;;;;;;;26.70;35.60;;;27.27;23.36;98690.06;5040889;27;124682;-84
2023/06/04 12:19:49;;;;;;;;;;;26.70;35.40;;;27.31;23.94;98694.47;5040078;27;124006;-84
2023/06/04 12:22:19;;;;;;;;;;;26.80;35.80;;;27.39;23.74;98700.06;5034255;27;109521;-85